Moby Aki — IBVV — position and weather

sailwx.info

Track history (hours):
 
Tides and Currents Weather Stations Pressure Air Temp Water Temp Dewpoint Dewpoint Depression Visibility Wind Speed Wind Dir Waves Ship Positions

Moby Aki

Last reported at 2017-Mar-25 00:07 UTC. Time now 2017-Mar-25 13:40 UTC.
Position N 42°29' E 009°57'.

Length 175 m; draft 6.9 m.

Type: Ship. MMSI: 247132400.

Date/timePositionNaut miles runAvg speedWind from/ knotsBaromVisibWave heightAir tempDewpointWater temp
2017-Mar-25 00:07N 42°29' E 009°57'1120.1
2017-Mar-24 23:33N 42°40' E 009°59'2020.3
2017-Mar-24 22:33N 42°60' E 010°05'2020.1
2017-Mar-24 21:34N 43°20' E 010°11'1514.6
2017-Mar-24 20:33N 43°33' E 010°18'0 0.0
2017-Mar-24 19:33N 43°33' E 010°18'0 0.0
2017-Mar-24 18:30N 43°33' E 010°18'0 0.0
2017-Mar-24 17:30N 43°33' E 010°18'0 0.0
2017-Mar-24 16:33N 43°33' E 010°18'0 0.0
2017-Mar-24 15:30N 43°33' E 010°18'0 0.0
2017-Mar-24 14:32N 43°33' E 010°18'0 0.0
2017-Mar-24 13:32N 43°33' E 010°18'0 0.0
2017-Mar-24 12:32N 43°33' E 010°18'0 0.0
2017-Mar-24 11:32N 43°33' E 010°18'0 0.0
2017-Mar-24 10:28N 43°33' E 010°18'0 0.0
2017-Mar-24 09:31N 43°33' E 010°18'0 0.0
2017-Mar-24 08:31N 43°33' E 010°18'0 0.0
2017-Mar-24 07:31N 43°33' E 010°18'0 0.0
2017-Mar-24 06:31N 43°33' E 010°18'0 0.0
2017-Mar-24 05:31N 43°33' E 010°18'9 9.4
2017-Mar-24 04:33N 43°26' E 010°11'2120.6
2017-Mar-24 03:33N 43°05' E 010°04'5 0.2
2017-Mar-22 23:13N 43°01' E 009°59'1421.5
2017-Mar-22 22:33N 43°15' E 010°05'1918.9
2017-Mar-22 21:33N 43°32' E 010°16'2 1.7
2017-Mar-22 20:31N 43°33' E 010°18'0 0.0
2017-Mar-22 19:31N 43°33' E 010°18'0 0.0
2017-Mar-22 18:31N 43°33' E 010°18'0 0.0
2017-Mar-22 17:28N 43°33' E 010°18'0 0.0
2017-Mar-22 16:30N 43°33' E 010°18'0 0.0
2017-Mar-22 15:33N 43°33' E 010°18'0 0.0
2017-Mar-22 14:33N 43°33' E 010°18'0 0.0
2017-Mar-22 13:33N 43°33' E 010°18'0 0.0
2017-Mar-22 12:33N 43°33' E 010°18'0 0.0
2017-Mar-22 11:32N 43°33' E 010°18'0 0.0
2017-Mar-22 10:32N 43°33' E 010°18'0 0.0
2017-Mar-22 09:26N 43°33' E 010°18'0 0.0
2017-Mar-22 08:32N 43°33' E 010°18'0 0.0
2017-Mar-22 07:32N 43°33' E 010°18'0 0.0
2017-Mar-22 06:29N 43°33' E 010°18'0 0.0
2017-Mar-22 05:32N 43°33' E 010°18'9 9.1
2017-Mar-22 04:34N 43°26' E 010°11'2019.8
2017-Mar-22 03:33N 43°07' E 010°03'7 0.3
2017-Mar-20 22:33N 42°59' E 010°04'2220.7
2017-Mar-20 21:29N 43°21' E 010°10'1314.4
2017-Mar-20 20:34N 43°33' E 010°18'0 0.1
2017-Mar-20 19:31N 43°33' E 010°18'0 0.0
2017-Mar-20 18:33N 43°33' E 010°18'0 0.0
2017-Mar-20 17:33N 43°33' E 010°18'0 0.0
2017-Mar-20 16:33N 43°33' E 010°18'0 0.0
2017-Mar-20 15:31N 43°33' E 010°18'0 0.0
2017-Mar-20 14:31N 43°33' E 010°18'0 0.0
2017-Mar-20 13:34N 43°33' E 010°18'0 0.0
2017-Mar-20 12:33N 43°33' E 010°18'0 0.0
2017-Mar-20 11:33N 43°33' E 010°18'0 0.0
2017-Mar-20 10:30N 43°33' E 010°18'0 0.0
2017-Mar-20 09:32N 43°33' E 010°18'0 0.0
2017-Mar-20 08:32N 43°33' E 010°18'0 0.0
2017-Mar-20 07:32N 43°33' E 010°18'0 0.0
2017-Mar-20 06:29N 43°33' E 010°18'0 0.0
2017-Mar-20 05:32N 43°33' E 010°18'7 7.4
2017-Mar-20 04:33N 43°27' E 010°12'2020.0
2017-Mar-20 03:33N 43°08' E 010°04'9 0.3
2017-Mar-18 22:33N 42°60' E 009°59'2121.3
2017-Mar-18 21:34N 43°20' E 010°09'1514.5
2017-Mar-18 20:32N 43°33' E 010°18'0 0.0
2017-Mar-18 19:29N 43°33' E 010°18'0 0.0
2017-Mar-18 18:28N 43°33' E 010°18'0 0.0
2017-Mar-18 17:31N 43°33' E 010°18'0 0.0
2017-Mar-18 16:31N 43°33' E 010°18'0 0.0
2017-Mar-18 15:31N 43°33' E 010°18'0 0.0
2017-Mar-18 14:31N 43°33' E 010°18'0 0.0
2017-Mar-18 13:30N 43°33' E 010°18'0 0.0
2017-Mar-18 12:33N 43°33' E 010°18'0 0.0
2017-Mar-18 11:33N 43°33' E 010°18'0 0.0
2017-Mar-18 10:33N 43°33' E 010°18'0 0.0
2017-Mar-18 09:33N 43°33' E 010°18'0 0.0
2017-Mar-18 08:33N 43°33' E 010°18'0 0.0
2017-Mar-18 07:26N 43°33' E 010°18'0 0.0
2017-Mar-18 06:32N 43°33' E 010°18'0 0.0
2017-Mar-18 05:32N 43°33' E 010°18'8 7.8
2017-Mar-18 04:34N 43°27' E 010°11'2020.0
2017-Mar-18 03:33N 43°09' E 010°01'56 2.1
2017-Mar-17 01:06N 42°13' E 009°50'1521.6
2017-Mar-17 00:24N 42°28' E 009°53'1821.5
2017-Mar-16 23:33N 42°46' E 009°58'2221.8
2017-Mar-16 22:33N 43°07' E 010°05'2221.9
2017-Mar-16 21:34N 43°28' E 010°12'6 5.8
2017-Mar-16 20:27N 43°33' E 010°18'0 0.0
2017-Mar-16 19:33N 43°33' E 010°18'0 0.0
2017-Mar-16 18:33N 43°33' E 010°18'0 0.0
2017-Mar-16 17:32N 43°33' E 010°18'0 0.0
2017-Mar-16 16:32N 43°33' E 010°18'0 0.0
2017-Mar-16 15:32N 43°33' E 010°18'0 0.0
2017-Mar-16 14:31N 43°33' E 010°18'0 0.0
2017-Mar-16 13:31N 43°33' E 010°18'0 0.0
2017-Mar-16 12:28N 43°33' E 010°18'0 0.0
2017-Mar-16 11:28N 43°33' E 010°18'0 0.0
2017-Mar-16 10:31N 43°33' E 010°18'0 0.0
2017-Mar-16 09:31N 43°33' E 010°18'0 0.0
2017-Mar-16 08:33N 43°33' E 010°18'0 0.0
2017-Mar-16 07:33N 43°33' E 010°18'0 0.0
2017-Mar-16 06:33N 43°33' E 010°18'0 0.0
2017-Mar-16 05:33N 43°33' E 010°18'8 7.8
2017-Mar-16 04:34N 43°27' E 010°11'2120.5
2017-Mar-16 03:33N 43°07' E 010°04'2120.6
2017-Mar-16 02:33N 42°47' E 009°58'8120.1
2017-Mar-15 22:34N 41°27' E 009°45'2020.1
2017-Mar-15 21:33N 41°07' E 009°43'37 2.0
2017-Mar-15 02:31N 41°44' E 009°45'4421.5
2017-Mar-15 00:29N 42°27' E 009°52'  
Track history (hours):
 
Tides and Currents Weather Stations Pressure Air Temp Water Temp Dewpoint Dewpoint Depression Visibility Wind Speed Wind Dir Waves Ship Positions

Moby Aki

Last reported at 2017-Mar-25 00:07 UTC. Time now 2017-Mar-25 13:40 UTC.
Position N 42°29' E 009°57'.

Length 175 m; draft 6.9 m.

Type: Ship. MMSI: 247132400.

Date/timePositionNaut miles runAvg speedWind from/ knotsBaromVisibWave heightAir tempDewpointWater temp
2017-Mar-25 00:07N 42°29' E 009°57'1120.1
2017-Mar-24 23:33N 42°40' E 009°59'2020.3
2017-Mar-24 22:33N 42°60' E 010°05'2020.1
2017-Mar-24 21:34N 43°20' E 010°11'1514.6
2017-Mar-24 20:33N 43°33' E 010°18'0 0.0
2017-Mar-24 19:33N 43°33' E 010°18'0 0.0
2017-Mar-24 18:30N 43°33' E 010°18'0 0.0
2017-Mar-24 17:30N 43°33' E 010°18'0 0.0
2017-Mar-24 16:33N 43°33' E 010°18'0 0.0
2017-Mar-24 15:30N 43°33' E 010°18'0 0.0
2017-Mar-24 14:32N 43°33' E 010°18'0 0.0
2017-Mar-24 13:32N 43°33' E 010°18'0 0.0
2017-Mar-24 12:32N 43°33' E 010°18'0 0.0
2017-Mar-24 11:32N 43°33' E 010°18'0 0.0
2017-Mar-24 10:28N 43°33' E 010°18'0 0.0
2017-Mar-24 09:31N 43°33' E 010°18'0 0.0
2017-Mar-24 08:31N 43°33' E 010°18'0 0.0
2017-Mar-24 07:31N 43°33' E 010°18'0 0.0
2017-Mar-24 06:31N 43°33' E 010°18'0 0.0
2017-Mar-24 05:31N 43°33' E 010°18'9 9.4
2017-Mar-24 04:33N 43°26' E 010°11'2120.6
2017-Mar-24 03:33N 43°05' E 010°04'5 0.2
2017-Mar-22 23:13N 43°01' E 009°59'1421.5
2017-Mar-22 22:33N 43°15' E 010°05'1918.9
2017-Mar-22 21:33N 43°32' E 010°16'2 1.7
2017-Mar-22 20:31N 43°33' E 010°18'0 0.0
2017-Mar-22 19:31N 43°33' E 010°18'0 0.0
2017-Mar-22 18:31N 43°33' E 010°18'0 0.0
2017-Mar-22 17:28N 43°33' E 010°18'0 0.0
2017-Mar-22 16:30N 43°33' E 010°18'0 0.0
2017-Mar-22 15:33N 43°33' E 010°18'0 0.0
2017-Mar-22 14:33N 43°33' E 010°18'0 0.0
2017-Mar-22 13:33N 43°33' E 010°18'0 0.0
2017-Mar-22 12:33N 43°33' E 010°18'0 0.0
2017-Mar-22 11:32N 43°33' E 010°18'0 0.0
2017-Mar-22 10:32N 43°33' E 010°18'0 0.0
2017-Mar-22 09:26N 43°33' E 010°18'0 0.0
2017-Mar-22 08:32N 43°33' E 010°18'0 0.0
2017-Mar-22 07:32N 43°33' E 010°18'0 0.0
2017-Mar-22 06:29N 43°33' E 010°18'0 0.0
2017-Mar-22 05:32N 43°33' E 010°18'9 9.1
2017-Mar-22 04:34N 43°26' E 010°11'2019.8
2017-Mar-22 03:33N 43°07' E 010°03'7 0.3
2017-Mar-20 22:33N 42°59' E 010°04'2220.7
2017-Mar-20 21:29N 43°21' E 010°10'1314.4
2017-Mar-20 20:34N 43°33' E 010°18'0 0.1
2017-Mar-20 19:31N 43°33' E 010°18'0 0.0
2017-Mar-20 18:33N 43°33' E 010°18'0 0.0
2017-Mar-20 17:33N 43°33' E 010°18'0 0.0
2017-Mar-20 16:33N 43°33' E 010°18'0 0.0
2017-Mar-20 15:31N 43°33' E 010°18'0 0.0
2017-Mar-20 14:31N 43°33' E 010°18'0 0.0
2017-Mar-20 13:34N 43°33' E 010°18'0 0.0
2017-Mar-20 12:33N 43°33' E 010°18'0 0.0
2017-Mar-20 11:33N 43°33' E 010°18'0 0.0
2017-Mar-20 10:30N 43°33' E 010°18'0 0.0
2017-Mar-20 09:32N 43°33' E 010°18'0 0.0
2017-Mar-20 08:32N 43°33' E 010°18'0 0.0
2017-Mar-20 07:32N 43°33' E 010°18'0 0.0
2017-Mar-20 06:29N 43°33' E 010°18'0 0.0
2017-Mar-20 05:32N 43°33' E 010°18'7 7.4
2017-Mar-20 04:33N 43°27' E 010°12'2020.0
2017-Mar-20 03:33N 43°08' E 010°04'9 0.3
2017-Mar-18 22:33N 42°60' E 009°59'2121.3
2017-Mar-18 21:34N 43°20' E 010°09'1514.5
2017-Mar-18 20:32N 43°33' E 010°18'0 0.0
2017-Mar-18 19:29N 43°33' E 010°18'0 0.0
2017-Mar-18 18:28N 43°33' E 010°18'0 0.0
2017-Mar-18 17:31N 43°33' E 010°18'0 0.0
2017-Mar-18 16:31N 43°33' E 010°18'0 0.0
2017-Mar-18 15:31N 43°33' E 010°18'0 0.0
2017-Mar-18 14:31N 43°33' E 010°18'0 0.0
2017-Mar-18 13:30N 43°33' E 010°18'0 0.0
2017-Mar-18 12:33N 43°33' E 010°18'0 0.0
2017-Mar-18 11:33N 43°33' E 010°18'0 0.0
2017-Mar-18 10:33N 43°33' E 010°18'0 0.0
2017-Mar-18 09:33N 43°33' E 010°18'0 0.0
2017-Mar-18 08:33N 43°33' E 010°18'0 0.0
2017-Mar-18 07:26N 43°33' E 010°18'0 0.0
2017-Mar-18 06:32N 43°33' E 010°18'0 0.0
2017-Mar-18 05:32N 43°33' E 010°18'8 7.8
2017-Mar-18 04:34N 43°27' E 010°11'2020.0
2017-Mar-18 03:33N 43°09' E 010°01'56 2.1
2017-Mar-17 01:06N 42°13' E 009°50'1521.6
2017-Mar-17 00:24N 42°28' E 009°53'1821.5
2017-Mar-16 23:33N 42°46' E 009°58'2221.8
2017-Mar-16 22:33N 43°07' E 010°05'2221.9
2017-Mar-16 21:34N 43°28' E 010°12'6 5.8
2017-Mar-16 20:27N 43°33' E 010°18'0 0.0
2017-Mar-16 19:33N 43°33' E 010°18'0 0.0
2017-Mar-16 18:33N 43°33' E 010°18'0 0.0
2017-Mar-16 17:32N 43°33' E 010°18'0 0.0
2017-Mar-16 16:32N 43°33' E 010°18'0 0.0
2017-Mar-16 15:32N 43°33' E 010°18'0 0.0
2017-Mar-16 14:31N 43°33' E 010°18'0 0.0
2017-Mar-16 13:31N 43°33' E 010°18'0 0.0
2017-Mar-16 12:28N 43°33' E 010°18'0 0.0
2017-Mar-16 11:28N 43°33' E 010°18'0 0.0
2017-Mar-16 10:31N 43°33' E 010°18'0 0.0
2017-Mar-16 09:31N 43°33' E 010°18'0 0.0
2017-Mar-16 08:33N 43°33' E 010°18'0 0.0
2017-Mar-16 07:33N 43°33' E 010°18'0 0.0
2017-Mar-16 06:33N 43°33' E 010°18'0 0.0
2017-Mar-16 05:33N 43°33' E 010°18'8 7.8
2017-Mar-16 04:34N 43°27' E 010°11'2120.5
2017-Mar-16 03:33N 43°07' E 010°04'2120.6
2017-Mar-16 02:33N 42°47' E 009°58'8120.1
2017-Mar-15 22:34N 41°27' E 009°45'2020.1
2017-Mar-15 21:33N 41°07' E 009°43'37 2.0
2017-Mar-15 02:31N 41°44' E 009°45'4421.5
2017-Mar-15 00:29N 42°27' E 009°52'  

Dump ship's entire track history